メインページ
METAR-TAF:

METAR-TAF

空港 :

サンフランシスコ, カリフォルニア州, アメリカ合衆国

サンフランシスコ国際空港

緯度: 37-37-11N, 経度: 122-21-53W, 海抜: 3m

現時点の気象観測

当レポートは29分前の21:36(UTC)に作成
西の風 16kt、最大22ktの突風を伴う
気温 11°C
湿度 43%
気圧 1017 hPa
視程: 16.1km
高度4600ftの千切れ雲あり

METAR: KSFO 192136Z 28016G22KT 10SM BKN046 11/M01 A3003 RMK AO2 WSHFT 2116 T01111011 $

時間: 14:05 (22:05 UTC)

予報

当レポートは1時間1分前の21:04(UTC)に作成
予報は19日の 21時(UTC)から 20日の 24時(UTC)まで有効
の風 12kt
視程: 10km
高度4500ftの雲は散在している
19日の 2200時(UTC)から
西/北西の風 20kt、最大27ktの突風を伴う
視程: 10km
高度4500ftの雲は散在している
20日の 0400時(UTC)から
西/北西の風 11kt
視程: 10km
高度6000ftの雲はほとんどない
20日の 0700時(UTC)から
西の風 7kt
視程: 10km
晴天
20日の 1400時(UTC)から
西の風 5kt
視程: 10km
高度12000ftの雲は散在している
20日の 2100時(UTC)から
西/北西の風 11kt
視程: 10km
高度12000ftの雲は散在している

TAF: KSFO 192104Z 1921/2024 35012KT P6SM SCT045 FM192200 30020G27KT P6SM SCT045 FM200400 29011KT P6SM FEW060 FM200700 28007KT P6SM SKC FM201400 28005KT P6SM SCT120 FM202100 29011KT P6SM SCT120

4,000以上の空港の気象観測と天気予報(METAR報とTAF報)

利用可能な観測所は地図上に黄色い丸と赤い丸で示す。

丸の上にカーソルを重ねると観測所名を参照できる。

次にクリックすると気象観測と天気予報を参照できる。

マップの切り替え:黒色「×」印の緑ボタンをクリックして拡大、「-」印の緑ボタンをクリックして縮小、緑色の三角印をクリックして隣りの地図に切り替え


METAR-TAF: